sensor_id;sensor_type;location;lat;lon;timestamp;P1;durP1;ratioP1;P2;durP2;ratioP2
37365;SDS011;23239;51.504;7.456;2023-04-08T00:00:00;19.4;;;17.3;;
37365;SDS011;23239;51.504;7.456;2023-04-08T00:01:00;19.4;;;17.3;;
37365;SDS011;23239;51.504;7.456;2023-04-08T00:02:00;19.4;;;17.3;;
37365;SDS011;23239;51.504;7.456;2023-04-08T00:03:00;19.4;;;17.3;;
37365;SDS011;23239;51.504;7.456;2023-04-08T00:04:00;20.4;;;17.7;;
37365;SDS011;23239;51.504;7.456;2023-04-08T00:05:00;20.4;;;17.7;;
37365;SDS011;23239;51.504;7.456;2023-04-08T00:06:00;20.4;;;17.7;;
37365;SDS011;23239;51.504;7.456;2023-04-08T00:07:00;20.4;;;17.7;;
37365;SDS011;23239;51.504;7.456;2023-04-08T00:08:00;20.4;;;17.7;;
37365;SDS011;23239;51.504;7.456;2023-04-08T00:09:00;20.2;;;17.6;;
37365;SDS011;23239;51.504;7.456;2023-04-08T00:10:00;20.2;;;17.6;;
37365;SDS011;23239;51.504;7.456;2023-04-08T00:11:00;20.2;;;17.6;;
37365;SDS011;23239;51.504;7.456;2023-04-08T00:12:00;20.2;;;17.6;;
37365;SDS011;23239;51.504;7.456;2023-04-08T00:13:00;20.2;;;17.6;;
37365;SDS011;23239;51.504;7.456;2023-04-08T00:14:01;20.0;;;17.5;;
37365;SDS011;23239;51.504;7.456;2023-04-08T00:15:00;20.0;;;17.5;;
37365;SDS011;23239;51.504;7.456;2023-04-08T00:16:00;20.0;;;17.5;;
37365;SDS011;23239;51.504;7.456;2023-04-08T00:17:00;20.0;;;17.5;;
37365;SDS011;23239;51.504;7.456;2023-04-08T00:18:00;20.0;;;17.5;;
37365;SDS011;23239;51.504;7.456;2023-04-08T00:19:00;20.7;;;17.9;;
37365;SDS011;23239;51.504;7.456;2023-04-08T00:20:00;20.7;;;17.9;;
37365;SDS011;23239;51.504;7.456;2023-04-08T00:21:00;20.7;;;17.9;;
37365;SDS011;23239;51.504;7.456;2023-04-08T00:22:00;20.7;;;17.9;;
37365;SDS011;23239;51.504;7.456;2023-04-08T00:23:00;20.7;;;17.9;;
37365;SDS011;23239;51.504;7.456;2023-04-08T00:24:00;21.8;;;18.6;;
37365;SDS011;23239;51.504;7.456;2023-04-08T00:25:00;21.8;;;18.6;;
37365;SDS011;23239;51.504;7.456;2023-04-08T00:26:00;21.8;;;18.6;;
37365;SDS011;23239;51.504;7.456;2023-04-08T00:27:00;21.8;;;18.6;;
37365;SDS011;23239;51.504;7.456;2023-04-08T00:28:00;21.8;;;18.6;;
37365;SDS011;23239;51.504;7.456;2023-04-08T00:29:00;41.5;;;19.3;;
37365;SDS011;23239;51.504;7.456;2023-04-08T00:30:00;41.5;;;19.3;;
37365;SDS011;23239;51.504;7.456;2023-04-08T00:31:00;41.5;;;19.3;;
37365;SDS011;23239;51.504;7.456;2023-04-08T00:32:00;41.5;;;19.3;;
37365;SDS011;23239;51.504;7.456;2023-04-08T00:33:00;41.5;;;19.3;;
37365;SDS011;23239;51.504;7.456;2023-04-08T00:34:00;20.3;;;17.9;;
37365;SDS011;23239;51.504;7.456;2023-04-08T00:35:00;20.3;;;17.9;;
37365;SDS011;23239;51.504;7.456;2023-04-08T00:36:00;20.3;;;17.9;;
37365;SDS011;23239;51.504;7.456;2023-04-08T00:37:00;20.3;;;17.9;;
37365;SDS011;23239;51.504;7.456;2023-04-08T00:38:00;20.3;;;17.9;;
37365;SDS011;23239;51.504;7.456;2023-04-08T00:39:00;19.3;;;16.9;;
37365;SDS011;23239;51.504;7.456;2023-04-08T00:40:00;19.3;;;16.9;;
37365;SDS011;23239;51.504;7.456;2023-04-08T00:41:00;19.3;;;16.9;;
37365;SDS011;23239;51.504;7.456;2023-04-08T00:42:00;19.3;;;16.9;;
37365;SDS011;23239;51.504;7.456;2023-04-08T00:43:00;19.3;;;16.9;;
37365;SDS011;23239;51.504;7.456;2023-04-08T00:44:00;17.9;;;16.0;;
37365;SDS011;23239;51.504;7.456;2023-04-08T00:45:00;17.9;;;16.0;;
37365;SDS011;23239;51.504;7.456;2023-04-08T00:46:00;17.9;;;16.0;;
37365;SDS011;23239;51.504;7.456;2023-04-08T00:47:00;17.9;;;16.0;;
37365;SDS011;23239;51.504;7.456;2023-04-08T00:48:00;17.9;;;16.0;;
37365;SDS011;23239;51.504;7.456;2023-04-08T00:49:00;19.2;;;15.9;;
37365;SDS011;23239;51.504;7.456;2023-04-08T00:50:00;19.2;;;15.9;;
37365;SDS011;23239;51.504;7.456;2023-04-08T00:51:00;19.2;;;15.9;;
37365;SDS011;23239;51.504;7.456;2023-04-08T00:52:00;19.2;;;15.9;;
37365;SDS011;23239;51.504;7.456;2023-04-08T00:53:00;19.2;;;15.9;;
37365;SDS011;23239;51.504;7.456;2023-04-08T00:54:00;16.8;;;14.8;;
37365;SDS011;23239;51.504;7.456;2023-04-08T00:55:00;16.8;;;14.8;;
37365;SDS011;23239;51.504;7.456;2023-04-08T00:56:00;16.8;;;14.8;;
37365;SDS011;23239;51.504;7.456;2023-04-08T00:57:00;16.8;;;14.8;;
37365;SDS011;23239;51.504;7.456;2023-04-08T00:58:00;16.8;;;14.8;;
37365;SDS011;23239;51.504;7.456;2023-04-08T00:59:00;17.7;;;15.8;;
37365;SDS011;23239;51.504;7.456;2023-04-08T01:00:00;17.7;;;15.8;;
37365;SDS011;23239;51.504;7.456;2023-04-08T01:01:02;17.7;;;15.8;;
37365;SDS011;23239;51.504;7.456;2023-04-08T01:02:03;17.7;;;15.8;;
37365;SDS011;23239;51.504;7.456;2023-04-08T01:03:01;17.7;;;15.8;;
37365;SDS011;23239;51.504;7.456;2023-04-08T01:04:01;19.6;;;16.6;;
37365;SDS011;23239;51.504;7.456;2023-04-08T01:05:01;19.6;;;16.6;;
37365;SDS011;23239;51.504;7.456;2023-04-08T01:06:02;19.6;;;16.6;;
37365;SDS011;23239;51.504;7.456;2023-04-08T01:07:02;19.6;;;16.6;;
37365;SDS011;23239;51.504;7.456;2023-04-08T01:08:01;19.6;;;16.6;;
37365;SDS011;23239;51.504;7.456;2023-04-08T01:09:00;28.6;;;17.4;;
37365;SDS011;23239;51.504;7.456;2023-04-08T01:10:02;28.6;;;17.4;;
37365;SDS011;23239;51.504;7.456;2023-04-08T01:11:00;28.6;;;17.4;;
37365;SDS011;23239;51.504;7.456;2023-04-08T01:12:01;28.6;;;17.4;;
37365;SDS011;23239;51.504;7.456;2023-04-08T01:13:00;28.6;;;17.4;;
37365;SDS011;23239;51.504;7.456;2023-04-08T01:14:00;20.4;;;18.2;;
37365;SDS011;23239;51.504;7.456;2023-04-08T01:15:01;20.4;;;18.2;;
37365;SDS011;23239;51.504;7.456;2023-04-08T01:16:00;20.4;;;18.2;;
37365;SDS011;23239;51.504;7.456;2023-04-08T01:17:00;20.4;;;18.2;;
37365;SDS011;23239;51.504;7.456;2023-04-08T01:18:00;20.4;;;18.2;;
37365;SDS011;23239;51.504;7.456;2023-04-08T01:19:00;24.3;;;17.9;;
37365;SDS011;23239;51.504;7.456;2023-04-08T01:20:00;24.3;;;17.9;;
37365;SDS011;23239;51.504;7.456;2023-04-08T01:21:00;24.3;;;17.9;;
37365;SDS011;23239;51.504;7.456;2023-04-08T01:22:00;24.3;;;17.9;;
37365;SDS011;23239;51.504;7.456;2023-04-08T01:23:02;24.3;;;17.9;;
37365;SDS011;23239;51.504;7.456;2023-04-08T01:24:00;22.4;;;18.1;;
37365;SDS011;23239;51.504;7.456;2023-04-08T01:25:01;22.4;;;18.1;;
37365;SDS011;23239;51.504;7.456;2023-04-08T01:26:00;22.4;;;18.1;;
37365;SDS011;23239;51.504;7.456;2023-04-08T01:27:00;22.4;;;18.1;;
37365;SDS011;23239;51.504;7.456;2023-04-08T01:28:00;22.4;;;18.1;;
37365;SDS011;23239;51.504;7.456;2023-04-08T01:29:00;20.5;;;18.0;;
37365;SDS011;23239;51.504;7.456;2023-04-08T01:30:00;20.5;;;18.0;;
37365;SDS011;23239;51.504;7.456;2023-04-08T01:31:00;20.5;;;18.0;;
37365;SDS011;23239;51.504;7.456;2023-04-08T01:32:00;20.5;;;18.0;;
37365;SDS011;23239;51.504;7.456;2023-04-08T01:33:00;20.5;;;18.0;;
37365;SDS011;23239;51.504;7.456;2023-04-08T01:34:00;21.4;;;17.5;;
37365;SDS011;23239;51.504;7.456;2023-04-08T01:35:00;21.4;;;17.5;;
37365;SDS011;23239;51.504;7.456;2023-04-08T01:36:00;21.4;;;17.5;;
37365;SDS011;23239;51.504;7.456;2023-04-08T01:37:00;21.4;;;17.5;;
37365;SDS011;23239;51.504;7.456;2023-04-08T01:38:00;21.4;;;17.5;;
37365;SDS011;23239;51.504;7.456;2023-04-08T01:39:00;21.9;;;18.5;;
37365;SDS011;23239;51.504;7.456;2023-04-08T01:40:00;21.9;;;18.5;;
37365;SDS011;23239;51.504;7.456;2023-04-08T01:41:00;21.9;;;18.5;;
37365;SDS011;23239;51.504;7.456;2023-04-08T01:42:00;21.9;;;18.5;;
37365;SDS011;23239;51.504;7.456;2023-04-08T01:43:00;21.9;;;18.5;;
37365;SDS011;23239;51.504;7.456;2023-04-08T01:44:00;21.3;;;18.1;;
37365;SDS011;23239;51.504;7.456;2023-04-08T01:45:00;21.3;;;18.1;;
37365;SDS011;23239;51.504;7.456;2023-04-08T01:46:00;21.3;;;18.1;;
37365;SDS011;23239;51.504;7.456;2023-04-08T01:47:00;21.3;;;18.1;;
37365;SDS011;23239;51.504;7.456;2023-04-08T01:48:00;21.3;;;18.1;;
37365;SDS011;23239;51.504;7.456;2023-04-08T01:49:00;20.2;;;17.4;;
37365;SDS011;23239;51.504;7.456;2023-04-08T01:50:00;20.2;;;17.4;;
37365;SDS011;23239;51.504;7.456;2023-04-08T01:51:00;20.2;;;17.4;;
37365;SDS011;23239;51.504;7.456;2023-04-08T01:52:00;20.2;;;17.4;;
37365;SDS011;23239;51.504;7.456;2023-04-08T01:53:00;20.2;;;17.4;;
37365;SDS011;23239;51.504;7.456;2023-04-08T01:54:00;18.3;;;16.2;;
37365;SDS011;23239;51.504;7.456;2023-04-08T01:55:00;18.3;;;16.2;;
37365;SDS011;23239;51.504;7.456;2023-04-08T01:56:02;18.3;;;16.2;;
37365;SDS011;23239;51.504;7.456;2023-04-08T01:57:00;18.3;;;16.2;;
37365;SDS011;23239;51.504;7.456;2023-04-08T01:58:00;18.3;;;16.2;;
37365;SDS011;23239;51.504;7.456;2023-04-08T01:59:00;17.9;;;15.8;;
37365;SDS011;23239;51.504;7.456;2023-04-08T02:00:01;17.9;;;15.8;;
37365;SDS011;23239;51.504;7.456;2023-04-08T02:01:00;17.9;;;15.8;;
37365;SDS011;23239;51.504;7.456;2023-04-08T02:02:00;17.9;;;15.8;;
37365;SDS011;23239;51.504;7.456;2023-04-08T02:03:00;17.9;;;15.8;;
37365;SDS011;23239;51.504;7.456;2023-04-08T02:04:00;16.2;;;14.3;;
37365;SDS011;23239;51.504;7.456;2023-04-08T02:05:00;16.2;;;14.3;;
37365;SDS011;23239;51.504;7.456;2023-04-08T02:06:00;16.2;;;14.3;;
37365;SDS011;23239;51.504;7.456;2023-04-08T02:07:00;16.2;;;14.3;;
37365;SDS011;23239;51.504;7.456;2023-04-08T02:08:00;16.2;;;14.3;;
37365;SDS011;23239;51.504;7.456;2023-04-08T02:09:00;14.5;;;13.0;;
37365;SDS011;23239;51.504;7.456;2023-04-08T02:10:00;14.5;;;13.0;;
37365;SDS011;23239;51.504;7.456;2023-04-08T02:11:00;14.5;;;13.0;;
37365;SDS011;23239;51.504;7.456;2023-04-08T02:12:00;14.5;;;13.0;;
37365;SDS011;23239;51.504;7.456;2023-04-08T02:13:00;14.5;;;13.0;;
37365;SDS011;23239;51.504;7.456;2023-04-08T02:14:00;15.6;;;14.0;;
37365;SDS011;23239;51.504;7.456;2023-04-08T02:15:00;15.6;;;14.0;;
37365;SDS011;23239;51.504;7.456;2023-04-08T02:16:02;15.6;;;14.0;;
37365;SDS011;23239;51.504;7.456;2023-04-08T02:17:01;15.6;;;14.0;;
37365;SDS011;23239;51.504;7.456;2023-04-08T02:18:02;15.6;;;14.0;;
37365;SDS011;23239;51.504;7.456;2023-04-08T02:19:01;14.0;;;12.5;;
37365;SDS011;23239;51.504;7.456;2023-04-08T02:20:02;14.0;;;12.5;;
37365;SDS011;23239;51.504;7.456;2023-04-08T02:21:01;14.0;;;12.5;;
37365;SDS011;23239;51.504;7.456;2023-04-08T02:22:01;14.0;;;12.5;;
37365;SDS011;23239;51.504;7.456;2023-04-08T02:23:01;14.0;;;12.5;;
37365;SDS011;23239;51.504;7.456;2023-04-08T02:24:00;13.7;;;12.2;;
37365;SDS011;23239;51.504;7.456;2023-04-08T02:25:00;13.7;;;12.2;;
37365;SDS011;23239;51.504;7.456;2023-04-08T02:26:00;13.7;;;12.2;;
37365;SDS011;23239;51.504;7.456;2023-04-08T02:27:00;13.7;;;12.2;;
37365;SDS011;23239;51.504;7.456;2023-04-08T02:28:00;13.7;;;12.2;;
37365;SDS011;23239;51.504;7.456;2023-04-08T02:29:00;13.8;;;12.3;;
37365;SDS011;23239;51.504;7.456;2023-04-08T02:30:01;13.8;;;12.3;;
37365;SDS011;23239;51.504;7.456;2023-04-08T02:31:00;13.8;;;12.3;;
37365;SDS011;23239;51.504;7.456;2023-04-08T02:32:00;13.8;;;12.3;;
37365;SDS011;23239;51.504;7.456;2023-04-08T02:33:00;13.8;;;12.3;;
37365;SDS011;23239;51.504;7.456;2023-04-08T02:34:00;12.4;;;10.5;;
37365;SDS011;23239;51.504;7.456;2023-04-08T02:35:00;12.4;;;10.5;;
37365;SDS011;23239;51.504;7.456;2023-04-08T02:36:00;12.4;;;10.5;;
37365;SDS011;23239;51.504;7.456;2023-04-08T02:37:00;12.4;;;10.5;;
37365;SDS011;23239;51.504;7.456;2023-04-08T02:38:00;12.4;;;10.5;;
37365;SDS011;23239;51.504;7.456;2023-04-08T02:39:00;12.3;;;11.1;;
37365;SDS011;23239;51.504;7.456;2023-04-08T02:40:00;12.3;;;11.1;;
37365;SDS011;23239;51.504;7.456;2023-04-08T02:41:00;12.3;;;11.1;;
37365;SDS011;23239;51.504;7.456;2023-04-08T02:42:00;12.3;;;11.1;;
37365;SDS011;23239;51.504;7.456;2023-04-08T02:43:00;12.3;;;11.1;;
37365;SDS011;23239;51.504;7.456;2023-04-08T02:44:00;12.5;;;11.2;;
37365;SDS011;23239;51.504;7.456;2023-04-08T02:45:00;12.5;;;11.2;;
37365;SDS011;23239;51.504;7.456;2023-04-08T02:46:00;12.5;;;11.2;;
37365;SDS011;23239;51.504;7.456;2023-04-08T02:47:00;12.5;;;11.2;;
37365;SDS011;23239;51.504;7.456;2023-04-08T02:48:00;12.5;;;11.2;;
37365;SDS011;23239;51.504;7.456;2023-04-08T02:49:00;12.2;;;10.9;;
37365;SDS011;23239;51.504;7.456;2023-04-08T02:50:00;12.2;;;10.9;;
37365;SDS011;23239;51.504;7.456;2023-04-08T02:51:00;12.2;;;10.9;;
37365;SDS011;23239;51.504;7.456;2023-04-08T02:52:00;12.2;;;10.9;;
37365;SDS011;23239;51.504;7.456;2023-04-08T02:53:00;12.2;;;10.9;;
37365;SDS011;23239;51.504;7.456;2023-04-08T02:54:00;11.2;;;10.1;;
37365;SDS011;23239;51.504;7.456;2023-04-08T02:55:00;11.2;;;10.1;;
37365;SDS011;23239;51.504;7.456;2023-04-08T02:56:00;11.2;;;10.1;;
37365;SDS011;23239;51.504;7.456;2023-04-08T02:57:00;11.2;;;10.1;;
37365;SDS011;23239;51.504;7.456;2023-04-08T02:58:00;11.2;;;10.1;;
37365;SDS011;23239;51.504;7.456;2023-04-08T02:59:00;10.8;;;9.7;;
37365;SDS011;23239;51.504;7.456;2023-04-08T03:00:00;10.8;;;9.7;;
37365;SDS011;23239;51.504;7.456;2023-04-08T03:01:00;10.8;;;9.7;;
37365;SDS011;23239;51.504;7.456;2023-04-08T03:02:00;10.8;;;9.7;;
37365;SDS011;23239;51.504;7.456;2023-04-08T03:03:00;10.8;;;9.7;;
37365;SDS011;23239;51.504;7.456;2023-04-08T03:04:00;11.6;;;10.4;;
37365;SDS011;23239;51.504;7.456;2023-04-08T03:05:00;11.6;;;10.4;;
37365;SDS011;23239;51.504;7.456;2023-04-08T03:06:00;11.6;;;10.4;;
37365;SDS011;23239;51.504;7.456;2023-04-08T03:07:00;11.6;;;10.4;;
37365;SDS011;23239;51.504;7.456;2023-04-08T03:08:00;11.6;;;10.4;;
37365;SDS011;23239;51.504;7.456;2023-04-08T03:09:00;11.1;;;9.9;;
37365;SDS011;23239;51.504;7.456;2023-04-08T03:10:00;11.1;;;9.9;;
37365;SDS011;23239;51.504;7.456;2023-04-08T03:11:00;11.1;;;9.9;;
37365;SDS011;23239;51.504;7.456;2023-04-08T03:12:00;11.1;;;9.9;;
37365;SDS011;23239;51.504;7.456;2023-04-08T03:13:00;11.1;;;9.9;;
37365;SDS011;23239;51.504;7.456;2023-04-08T03:14:00;12.1;;;10.9;;
37365;SDS011;23239;51.504;7.456;2023-04-08T03:15:00;12.1;;;10.9;;
37365;SDS011;23239;51.504;7.456;2023-04-08T03:16:00;12.1;;;10.9;;
37365;SDS011;23239;51.504;7.456;2023-04-08T03:17:00;12.1;;;10.9;;
37365;SDS011;23239;51.504;7.456;2023-04-08T03:18:00;12.1;;;10.9;;
37365;SDS011;23239;51.504;7.456;2023-04-08T03:19:00;11.5;;;10.3;;
37365;SDS011;23239;51.504;7.456;2023-04-08T03:20:00;11.5;;;10.3;;
37365;SDS011;23239;51.504;7.456;2023-04-08T03:21:00;11.5;;;10.3;;
37365;SDS011;23239;51.504;7.456;2023-04-08T03:22:00;11.5;;;10.3;;
37365;SDS011;23239;51.504;7.456;2023-04-08T03:23:00;11.5;;;10.3;;
37365;SDS011;23239;51.504;7.456;2023-04-08T03:24:00;11.9;;;10.6;;
37365;SDS011;23239;51.504;7.456;2023-04-08T03:25:00;11.9;;;10.6;;
37365;SDS011;23239;51.504;7.456;2023-04-08T03:26:00;11.9;;;10.6;;
37365;SDS011;23239;51.504;7.456;2023-04-08T03:27:00;11.9;;;10.6;;
37365;SDS011;23239;51.504;7.456;2023-04-08T03:28:00;11.9;;;10.6;;
37365;SDS011;23239;51.504;7.456;2023-04-08T03:29:00;11.4;;;10.2;;
37365;SDS011;23239;51.504;7.456;2023-04-08T03:30:00;11.4;;;10.2;;
37365;SDS011;23239;51.504;7.456;2023-04-08T03:31:00;11.4;;;10.2;;
37365;SDS011;23239;51.504;7.456;2023-04-08T03:32:00;11.4;;;10.2;;
37365;SDS011;23239;51.504;7.456;2023-04-08T03:33:00;11.4;;;10.2;;
37365;SDS011;23239;51.504;7.456;2023-04-08T03:34:00;11.2;;;10.0;;
37365;SDS011;23239;51.504;7.456;2023-04-08T03:35:00;11.2;;;10.0;;
37365;SDS011;23239;51.504;7.456;2023-04-08T03:36:00;11.2;;;10.0;;
37365;SDS011;23239;51.504;7.456;2023-04-08T03:37:00;11.2;;;10.0;;
37365;SDS011;23239;51.504;7.456;2023-04-08T03:38:00;11.2;;;10.0;;
37365;SDS011;23239;51.504;7.456;2023-04-08T03:39:00;12.7;;;11.2;;
37365;SDS011;23239;51.504;7.456;2023-04-08T03:40:00;12.7;;;11.2;;
37365;SDS011;23239;51.504;7.456;2023-04-08T03:41:00;12.7;;;11.2;;
37365;SDS011;23239;51.504;7.456;2023-04-08T03:42:00;12.7;;;11.2;;
37365;SDS011;23239;51.504;7.456;2023-04-08T03:43:00;12.7;;;11.2;;
37365;SDS011;23239;51.504;7.456;2023-04-08T03:44:00;11.3;;;9.9;;
37365;SDS011;23239;51.504;7.456;2023-04-08T03:45:00;11.3;;;9.9;;
37365;SDS011;23239;51.504;7.456;2023-04-08T03:46:00;11.3;;;9.9;;
37365;SDS011;23239;51.504;7.456;2023-04-08T03:47:00;11.3;;;9.9;;
37365;SDS011;23239;51.504;7.456;2023-04-08T03:48:00;11.3;;;9.9;;
37365;SDS011;23239;51.504;7.456;2023-04-08T03:49:00;11.8;;;10.5;;
37365;SDS011;23239;51.504;7.456;2023-04-08T03:50:00;11.8;;;10.5;;
37365;SDS011;23239;51.504;7.456;2023-04-08T03:51:00;11.8;;;10.5;;
37365;SDS011;23239;51.504;7.456;2023-04-08T03:52:00;11.8;;;10.5;;
37365;SDS011;23239;51.504;7.456;2023-04-08T03:53:00;11.8;;;10.5;;
37365;SDS011;23239;51.504;7.456;2023-04-08T03:54:00;12.3;;;10.7;;
37365;SDS011;23239;51.504;7.456;2023-04-08T03:55:00;12.3;;;10.7;;
37365;SDS011;23239;51.504;7.456;2023-04-08T03:56:00;12.3;;;10.7;;
37365;SDS011;23239;51.504;7.456;2023-04-08T03:57:00;12.3;;;10.7;;
37365;SDS011;23239;51.504;7.456;2023-04-08T03:58:00;12.3;;;10.7;;
37365;SDS011;23239;51.504;7.456;2023-04-08T03:59:00;12.7;;;10.8;;
37365;SDS011;23239;51.504;7.456;2023-04-08T04:00:00;12.7;;;10.8;;
37365;SDS011;23239;51.504;7.456;2023-04-08T04:01:00;12.7;;;10.8;;
37365;SDS011;23239;51.504;7.456;2023-04-08T04:02:00;12.7;;;10.8;;
37365;SDS011;23239;51.504;7.456;2023-04-08T04:03:00;12.7;;;10.8;;
37365;SDS011;23239;51.504;7.456;2023-04-08T04:04:00;12.1;;;10.5;;
37365;SDS011;23239;51.504;7.456;2023-04-08T04:05:00;12.1;;;10.5;;
37365;SDS011;23239;51.504;7.456;2023-04-08T04:06:00;12.1;;;10.5;;
37365;SDS011;23239;51.504;7.456;2023-04-08T04:07:00;12.1;;;10.5;;
37365;SDS011;23239;51.504;7.456;2023-04-08T04:08:00;12.1;;;10.5;;
37365;SDS011;23239;51.504;7.456;2023-04-08T04:09:00;12.2;;;10.8;;
37365;SDS011;23239;51.504;7.456;2023-04-08T04:10:00;12.2;;;10.8;;
37365;SDS011;23239;51.504;7.456;2023-04-08T04:11:00;12.2;;;10.8;;
37365;SDS011;23239;51.504;7.456;2023-04-08T04:12:00;12.2;;;10.8;;
37365;SDS011;23239;51.504;7.456;2023-04-08T04:13:00;12.2;;;10.8;;
37365;SDS011;23239;51.504;7.456;2023-04-08T04:14:00;13.1;;;11.4;;
37365;SDS011;23239;51.504;7.456;2023-04-08T04:15:00;13.1;;;11.4;;
37365;SDS011;23239;51.504;7.456;2023-04-08T04:16:00;13.1;;;11.4;;
37365;SDS011;23239;51.504;7.456;2023-04-08T04:17:00;13.1;;;11.4;;
37365;SDS011;23239;51.504;7.456;2023-04-08T04:18:00;13.1;;;11.4;;
37365;SDS011;23239;51.504;7.456;2023-04-08T04:19:00;14.8;;;12.4;;
37365;SDS011;23239;51.504;7.456;2023-04-08T04:20:02;14.8;;;12.4;;
37365;SDS011;23239;51.504;7.456;2023-04-08T04:21:00;14.8;;;12.4;;
37365;SDS011;23239;51.504;7.456;2023-04-08T04:22:00;14.8;;;12.4;;
37365;SDS011;23239;51.504;7.456;2023-04-08T04:23:00;14.8;;;12.4;;
37365;SDS011;23239;51.504;7.456;2023-04-08T04:24:00;14.8;;;12.6;;
37365;SDS011;23239;51.504;7.456;2023-04-08T04:25:00;14.8;;;12.6;;
37365;SDS011;23239;51.504;7.456;2023-04-08T04:26:00;14.8;;;12.6;;
37365;SDS011;23239;51.504;7.456;2023-04-08T04:27:00;14.8;;;12.6;;
37365;SDS011;23239;51.504;7.456;2023-04-08T04:28:00;14.8;;;12.6;;
37365;SDS011;23239;51.504;7.456;2023-04-08T04:29:00;14.6;;;12.3;;
37365;SDS011;23239;51.504;7.456;2023-04-08T04:30:00;14.6;;;12.3;;
37365;SDS011;23239;51.504;7.456;2023-04-08T04:31:00;14.6;;;12.3;;
37365;SDS011;23239;51.504;7.456;2023-04-08T04:32:00;14.6;;;12.3;;
37365;SDS011;23239;51.504;7.456;2023-04-08T04:33:00;14.6;;;12.3;;
37365;SDS011;23239;51.504;7.456;2023-04-08T04:34:00;17.0;;;13.5;;
37365;SDS011;23239;51.504;7.456;2023-04-08T04:35:00;17.0;;;13.5;;
37365;SDS011;23239;51.504;7.456;2023-04-08T04:36:00;17.0;;;13.5;;
37365;SDS011;23239;51.504;7.456;2023-04-08T04:37:00;17.0;;;13.5;;
37365;SDS011;23239;51.504;7.456;2023-04-08T04:38:00;17.0;;;13.5;;
37365;SDS011;23239;51.504;7.456;2023-04-08T04:39:00;30.4;;;13.0;;
37365;SDS011;23239;51.504;7.456;2023-04-08T04:40:00;30.4;;;13.0;;
37365;SDS011;23239;51.504;7.456;2023-04-08T04:41:00;30.4;;;13.0;;
37365;SDS011;23239;51.504;7.456;2023-04-08T04:42:00;30.4;;;13.0;;
37365;SDS011;23239;51.504;7.456;2023-04-08T04:43:00;30.4;;;13.0;;
37365;SDS011;23239;51.504;7.456;2023-04-08T04:44:00;15.9;;;12.6;;
37365;SDS011;23239;51.504;7.456;2023-04-08T04:45:00;15.9;;;12.6;;
37365;SDS011;23239;51.504;7.456;2023-04-08T04:46:00;15.9;;;12.6;;
37365;SDS011;23239;51.504;7.456;2023-04-08T04:47:00;15.9;;;12.6;;
37365;SDS011;23239;51.504;7.456;2023-04-08T04:48:00;15.9;;;12.6;;
37365;SDS011;23239;51.504;7.456;2023-04-08T04:49:00;18.4;;;14.2;;
37365;SDS011;23239;51.504;7.456;2023-04-08T04:50:00;18.4;;;14.2;;
37365;SDS011;23239;51.504;7.456;2023-04-08T04:51:00;18.4;;;14.2;;
37365;SDS011;23239;51.504;7.456;2023-04-08T04:52:00;18.4;;;14.2;;
37365;SDS011;23239;51.504;7.456;2023-04-08T04:53:00;18.4;;;14.2;;
37365;SDS011;23239;51.504;7.456;2023-04-08T04:54:00;18.4;;;14.3;;
37365;SDS011;23239;51.504;7.456;2023-04-08T04:55:00;18.4;;;14.3;;
37365;SDS011;23239;51.504;7.456;2023-04-08T04:56:00;18.4;;;14.3;;
37365;SDS011;23239;51.504;7.456;2023-04-08T04:57:00;18.4;;;14.3;;
37365;SDS011;23239;51.504;7.456;2023-04-08T04:58:00;18.4;;;14.3;;
37365;SDS011;23239;51.504;7.456;2023-04-08T04:59:00;17.4;;;13.8;;
37365;SDS011;23239;51.504;7.456;2023-04-08T05:00:00;17.4;;;13.8;;
37365;SDS011;23239;51.504;7.456;2023-04-08T05:01:00;17.4;;;13.8;;
37365;SDS011;23239;51.504;7.456;2023-04-08T05:02:00;17.4;;;13.8;;
37365;SDS011;23239;51.504;7.456;2023-04-08T05:03:00;17.4;;;13.8;;
37365;SDS011;23239;51.504;7.456;2023-04-08T05:04:00;17.7;;;13.5;;
37365;SDS011;23239;51.504;7.456;2023-04-08T05:05:00;17.7;;;13.5;;
37365;SDS011;23239;51.504;7.456;2023-04-08T05:06:00;17.7;;;13.5;;
37365;SDS011;23239;51.504;7.456;2023-04-08T05:07:00;17.7;;;13.5;;
37365;SDS011;23239;51.504;7.456;2023-04-08T05:08:00;17.7;;;13.5;;
37365;SDS011;23239;51.504;7.456;2023-04-08T05:09:00;20.4;;;15.4;;
37365;SDS011;23239;51.504;7.456;2023-04-08T05:10:00;20.4;;;15.4;;
37365;SDS011;23239;51.504;7.456;2023-04-08T05:11:00;20.4;;;15.4;;
37365;SDS011;23239;51.504;7.456;2023-04-08T05:12:00;20.4;;;15.4;;
37365;SDS011;23239;51.504;7.456;2023-04-08T05:13:00;20.4;;;15.4;;
37365;SDS011;23239;51.504;7.456;2023-04-08T05:14:00;19.9;;;15.0;;
37365;SDS011;23239;51.504;7.456;2023-04-08T05:15:00;19.9;;;15.0;;
37365;SDS011;23239;51.504;7.456;2023-04-08T05:16:00;19.9;;;15.0;;
37365;SDS011;23239;51.504;7.456;2023-04-08T05:17:00;19.9;;;15.0;;
37365;SDS011;23239;51.504;7.456;2023-04-08T05:18:00;19.9;;;15.0;;
37365;SDS011;23239;51.504;7.456;2023-04-08T05:19:00;19.2;;;14.2;;
37365;SDS011;23239;51.504;7.456;2023-04-08T05:20:00;19.2;;;14.2;;
37365;SDS011;23239;51.504;7.456;2023-04-08T05:21:00;19.2;;;14.2;;
37365;SDS011;23239;51.504;7.456;2023-04-08T05:22:00;19.2;;;14.2;;
37365;SDS011;23239;51.504;7.456;2023-04-08T05:23:00;19.2;;;14.2;;
37365;SDS011;23239;51.504;7.456;2023-04-08T05:24:00;19.7;;;14.9;;
37365;SDS011;23239;51.504;7.456;2023-04-08T05:25:00;19.7;;;14.9;;
37365;SDS011;23239;51.504;7.456;2023-04-08T05:26:00;19.7;;;14.9;;
37365;SDS011;23239;51.504;7.456;2023-04-08T05:27:00;19.7;;;14.9;;
37365;SDS011;23239;51.504;7.456;2023-04-08T05:28:00;19.7;;;14.9;;
37365;SDS011;23239;51.504;7.456;2023-04-08T05:29:00;22.1;;;16.6;;
37365;SDS011;23239;51.504;7.456;2023-04-08T05:30:00;22.1;;;16.6;;
37365;SDS011;23239;51.504;7.456;2023-04-08T05:31:00;22.1;;;16.6;;
37365;SDS011;23239;51.504;7.456;2023-04-08T05:32:00;22.1;;;16.6;;
37365;SDS011;23239;51.504;7.456;2023-04-08T05:33:00;22.1;;;16.6;;
37365;SDS011;23239;51.504;7.456;2023-04-08T05:34:00;17.5;;;14.3;;
37365;SDS011;23239;51.504;7.456;2023-04-08T05:35:01;17.5;;;14.3;;
37365;SDS011;23239;51.504;7.456;2023-04-08T05:36:00;17.5;;;14.3;;
37365;SDS011;23239;51.504;7.456;2023-04-08T05:37:00;17.5;;;14.3;;
37365;SDS011;23239;51.504;7.456;2023-04-08T05:38:00;17.5;;;14.3;;
37365;SDS011;23239;51.504;7.456;2023-04-08T05:39:00;17.9;;;14.1;;
37365;SDS011;23239;51.504;7.456;2023-04-08T05:40:00;17.9;;;14.1;;
37365;SDS011;23239;51.504;7.456;2023-04-08T05:41:00;17.9;;;14.1;;
37365;SDS011;23239;51.504;7.456;2023-04-08T05:42:00;17.9;;;14.1;;
37365;SDS011;23239;51.504;7.456;2023-04-08T05:43:00;17.9;;;14.1;;
37365;SDS011;23239;51.504;7.456;2023-04-08T05:44:00;31.9;;;14.9;;
37365;SDS011;23239;51.504;7.456;2023-04-08T05:45:00;31.9;;;14.9;;
37365;SDS011;23239;51.504;7.456;2023-04-08T05:46:04;31.9;;;14.9;;
37365;SDS011;23239;51.504;7.456;2023-04-08T05:47:00;31.9;;;14.9;;
37365;SDS011;23239;51.504;7.456;2023-04-08T05:48:00;31.9;;;14.9;;
37365;SDS011;23239;51.504;7.456;2023-04-08T05:49:00;19.1;;;14.3;;
37365;SDS011;23239;51.504;7.456;2023-04-08T05:50:00;19.1;;;14.3;;
37365;SDS011;23239;51.504;7.456;2023-04-08T05:51:00;19.1;;;14.3;;
37365;SDS011;23239;51.504;7.456;2023-04-08T05:52:00;19.1;;;14.3;;
37365;SDS011;23239;51.504;7.456;2023-04-08T05:53:00;19.1;;;14.3;;
37365;SDS011;23239;51.504;7.456;2023-04-08T05:54:00;18.3;;;13.0;;
37365;SDS011;23239;51.504;7.456;2023-04-08T05:55:00;18.3;;;13.0;;
37365;SDS011;23239;51.504;7.456;2023-04-08T05:56:00;18.3;;;13.0;;
37365;SDS011;23239;51.504;7.456;2023-04-08T05:57:00;18.3;;;13.0;;
37365;SDS011;23239;51.504;7.456;2023-04-08T05:58:00;18.3;;;13.0;;
37365;SDS011;23239;51.504;7.456;2023-04-08T05:59:00;21.5;;;14.4;;
37365;SDS011;23239;51.504;7.456;2023-04-08T06:00:00;21.5;;;14.4;;
37365;SDS011;23239;51.504;7.456;2023-04-08T06:01:00;21.5;;;14.4;;